Accueil
METAR-TAF:

METAR-TAF

Aéroports :

Aéroport international de Curaçao

Curaçao, Antilles néerlandaises

latitude: 12-12N, longitude: 068-58W, altitude: 9 m

Observation

Le bulletin a été fait il y a 30 minutes, à 06:00 UTC
Vent 9 kt de est/sud-est
Température 26°C
Humidité 84%
Pression 1014 hPa
Visibilité 10 km ou plus

METAR: TNCC 210600Z AUTO 12009KT 9999 NSC 26/23 Q1014 NOSIG

Heure: 02:30 (06:30 UTC)

Prévision

Le bulletin a été fait il y a 2 heures et 30 minutes, à 04:00 UTC
Prévision valable du 21 à 06 UTC au 22 à 06 UTC
Vent 11 kt de est/sud-est
Visibilité 10 km ou plus
Nuages épars à une hauteur de 1800 ft

TAF: TNCC 210400Z 2106/2206 11011KT 9999 SCT018

Observations et prévisions météorologiques de plus de 4000 aéroports (messages METAR et TAF).

Les stations disponibles sont représentées par des disques jaunes et rouges sur la carte.

Passer la souris dessus pour voir le nom de la station.

Cliquer dessus pour voir les observations et prévisions météorologiques.

Pour changer de carte: cliquez sur les boutons verts avec une croix noire pour zoomer, sur le bouton vert avec un tiret pour effectuer un zoom arrière, ou sur les flèches vertes pour les cartes adjacentes.


METAR-TAF: